Cape Express — HO5337 — position and weather

sailwx.info

Track history (hours):
 
Tides and Currents Weather Stations Pressure Air Temp Water Temp Dewpoint Dewpoint Depression Visibility Wind Speed Wind Dir Waves Ship Positions

Cape Express

Last reported at 2014-Nov-26 22:22 UTC. Time now 2014-Nov-27 14:26 UTC.
Position N 26°04' W 079°25'.

Length 29 m; draft 2.2 m.

Type: Cargo ship. MMSI: 370269000.

Date/timePositionNaut miles runAvg speedWind from/ knotsBaromVisibWave heightAir tempDewpointWater temp
2014-Nov-26 22:22N 26°04' W 079°25'810.0
2014-Nov-26 21:33N 26°05' W 079°34'10 9.9
2014-Nov-26 20:33N 26°07' W 079°45'1010.0
2014-Nov-26 19:33N 26°07' W 079°57'10 9.5
2014-Nov-26 18:33N 26°05' W 080°07'1 1.4
2014-Nov-26 17:33N 26°04' W 080°08'0 0.0
2014-Nov-26 16:33N 26°04' W 080°08'0 0.0
2014-Nov-26 15:33N 26°04' W 080°08'0 0.0
2014-Nov-26 14:33N 26°04' W 080°08'0 0.0
2014-Nov-26 13:33N 26°04' W 080°08'0 0.0
2014-Nov-26 12:33N 26°04' W 080°08'0 0.0
2014-Nov-26 11:33N 26°04' W 080°08'0 0.0
2014-Nov-26 10:33N 26°04' W 080°08'0 0.0
2014-Nov-26 09:33N 26°04' W 080°08'0 0.0
2014-Nov-26 08:33N 26°04' W 080°08'0 0.0
2014-Nov-26 07:33N 26°04' W 080°08'0 0.0
2014-Nov-26 06:33N 26°04' W 080°08'0 0.0
2014-Nov-26 05:33N 26°04' W 080°08'0 0.0
2014-Nov-26 04:33N 26°04' W 080°08'0 0.0
2014-Nov-26 03:33N 26°04' W 080°08'0 0.0
2014-Nov-26 02:33N 26°04' W 080°08'0 0.0
2014-Nov-26 01:33N 26°04' W 080°08'0 0.0
2014-Nov-26 00:33N 26°04' W 080°08'0 0.0
2014-Nov-25 23:33N 26°04' W 080°08'0 0.0
2014-Nov-25 22:33N 26°04' W 080°08'0 0.2
2014-Nov-25 21:33N 26°04' W 080°08'6 5.7
2014-Nov-25 20:33N 26°04' W 080°01'1111.2
2014-Nov-25 19:33N 25°60' W 079°50'1111.0
2014-Nov-25 18:33N 25°57' W 079°38'8 0.2
2014-Nov-24 02:30N 25°57' W 079°30'9 9.4
2014-Nov-24 01:33N 25°59' W 079°39'9 9.0
2014-Nov-24 00:33N 26°01' W 079°49'9 8.6
2014-Nov-23 23:33N 26°03' W 079°58'8 8.2
2014-Nov-23 22:33N 26°06' W 080°07'2 2.0
2014-Nov-23 21:33N 26°04' W 080°08'0 0.0
2014-Nov-23 20:33N 26°04' W 080°08'0 0.0
2014-Nov-23 19:33N 26°04' W 080°08'0 0.0
2014-Nov-23 18:33N 26°04' W 080°08'0 0.0
2014-Nov-23 17:33N 26°04' W 080°08'3 2.7
2014-Nov-23 16:33N 26°06' W 080°06'1111.1
2014-Nov-23 15:33N 26°01' W 079°55'1111.5
2014-Nov-23 14:33N 25°55' W 079°44'8 0.1
2014-Nov-21 11:15N 25°48' W 079°40'5 7.6
2014-Nov-21 10:33N 25°52' W 079°44'7 7.4
2014-Nov-21 09:33N 25°56' W 079°51'7 7.0
2014-Nov-21 08:33N 26°00' W 079°57'8 7.7
2014-Nov-21 07:33N 26°05' W 080°04'4 3.8
2014-Nov-21 06:33N 26°04' W 080°08'0 0.0
2014-Nov-21 05:33N 26°04' W 080°08'0 0.0
2014-Nov-21 04:33N 26°04' W 080°08'0 0.0
2014-Nov-21 03:33N 26°04' W 080°08'0 0.0
2014-Nov-21 02:33N 26°04' W 080°08'0 0.0
2014-Nov-21 01:33N 26°04' W 080°08'0 0.0
2014-Nov-21 00:33N 26°04' W 080°08'0 0.0
2014-Nov-20 23:33N 26°04' W 080°08'1 1.1
2014-Nov-20 22:33N 26°04' W 080°07'8 8.0
2014-Nov-20 21:33N 26°05' W 079°58'1010.0
2014-Nov-20 20:33N 26°04' W 079°47'1010.2
2014-Nov-20 19:33N 26°04' W 079°36'  
2014-Nov-17 18:05N 25°56' W 079°33'5 9.2
2014-Nov-17 17:33N 25°58' W 079°38'9 9.4
2014-Nov-17 16:33N 26°01' W 079°48'9 8.9
2014-Nov-17 15:33N 26°03' W 079°58'8 8.5
2014-Nov-17 14:33N 26°05' W 080°07'2 1.6
2014-Nov-17 13:33N 26°04' W 080°08'0 0.0
2014-Nov-17 12:33N 26°04' W 080°08'0 0.0
2014-Nov-17 11:33N 26°04' W 080°08'0 0.0
2014-Nov-17 10:33N 26°04' W 080°08'0 0.0
2014-Nov-17 09:33N 26°04' W 080°08'0 0.0
2014-Nov-17 08:33N 26°04' W 080°08'0 0.0
2014-Nov-17 07:33N 26°04' W 080°08'0 0.0
2014-Nov-17 06:33N 26°04' W 080°08'0 0.0
2014-Nov-17 05:33N 26°04' W 080°08'0 0.0
2014-Nov-17 04:33N 26°04' W 080°08'0 0.0
2014-Nov-17 03:33N 26°04' W 080°08'0 0.0
2014-Nov-17 02:33N 26°04' W 080°08'0 0.2
2014-Nov-17 01:33N 26°04' W 080°08'6 6.4
2014-Nov-17 00:33N 26°04' W 080°01'1110.9
2014-Nov-16 23:33N 26°01' W 079°49'1110.6
2014-Nov-16 22:33N 25°58' W 079°38'  
Track history (hours):
 
Tides and Currents Weather Stations Pressure Air Temp Water Temp Dewpoint Dewpoint Depression Visibility Wind Speed Wind Dir Waves Ship Positions

Cape Express

Last reported at 2014-Nov-26 22:22 UTC. Time now 2014-Nov-27 14:26 UTC.
Position N 26°04' W 079°25'.

Length 29 m; draft 2.2 m.

Type: Cargo ship. MMSI: 370269000.

Date/timePositionNaut miles runAvg speedWind from/ knotsBaromVisibWave heightAir tempDewpointWater temp
2014-Nov-26 22:22N 26°04' W 079°25'810.0
2014-Nov-26 21:33N 26°05' W 079°34'10 9.9
2014-Nov-26 20:33N 26°07' W 079°45'1010.0
2014-Nov-26 19:33N 26°07' W 079°57'10 9.5
2014-Nov-26 18:33N 26°05' W 080°07'1 1.4
2014-Nov-26 17:33N 26°04' W 080°08'0 0.0
2014-Nov-26 16:33N 26°04' W 080°08'0 0.0
2014-Nov-26 15:33N 26°04' W 080°08'0 0.0
2014-Nov-26 14:33N 26°04' W 080°08'0 0.0
2014-Nov-26 13:33N 26°04' W 080°08'0 0.0
2014-Nov-26 12:33N 26°04' W 080°08'0 0.0
2014-Nov-26 11:33N 26°04' W 080°08'0 0.0
2014-Nov-26 10:33N 26°04' W 080°08'0 0.0
2014-Nov-26 09:33N 26°04' W 080°08'0 0.0
2014-Nov-26 08:33N 26°04' W 080°08'0 0.0
2014-Nov-26 07:33N 26°04' W 080°08'0 0.0
2014-Nov-26 06:33N 26°04' W 080°08'0 0.0
2014-Nov-26 05:33N 26°04' W 080°08'0 0.0
2014-Nov-26 04:33N 26°04' W 080°08'0 0.0
2014-Nov-26 03:33N 26°04' W 080°08'0 0.0
2014-Nov-26 02:33N 26°04' W 080°08'0 0.0
2014-Nov-26 01:33N 26°04' W 080°08'0 0.0
2014-Nov-26 00:33N 26°04' W 080°08'0 0.0
2014-Nov-25 23:33N 26°04' W 080°08'0 0.0
2014-Nov-25 22:33N 26°04' W 080°08'0 0.2
2014-Nov-25 21:33N 26°04' W 080°08'6 5.7
2014-Nov-25 20:33N 26°04' W 080°01'1111.2
2014-Nov-25 19:33N 25°60' W 079°50'1111.0
2014-Nov-25 18:33N 25°57' W 079°38'8 0.2
2014-Nov-24 02:30N 25°57' W 079°30'9 9.4
2014-Nov-24 01:33N 25°59' W 079°39'9 9.0
2014-Nov-24 00:33N 26°01' W 079°49'9 8.6
2014-Nov-23 23:33N 26°03' W 079°58'8 8.2
2014-Nov-23 22:33N 26°06' W 080°07'2 2.0
2014-Nov-23 21:33N 26°04' W 080°08'0 0.0
2014-Nov-23 20:33N 26°04' W 080°08'0 0.0
2014-Nov-23 19:33N 26°04' W 080°08'0 0.0
2014-Nov-23 18:33N 26°04' W 080°08'0 0.0
2014-Nov-23 17:33N 26°04' W 080°08'3 2.7
2014-Nov-23 16:33N 26°06' W 080°06'1111.1
2014-Nov-23 15:33N 26°01' W 079°55'1111.5
2014-Nov-23 14:33N 25°55' W 079°44'8 0.1
2014-Nov-21 11:15N 25°48' W 079°40'5 7.6
2014-Nov-21 10:33N 25°52' W 079°44'7 7.4
2014-Nov-21 09:33N 25°56' W 079°51'7 7.0
2014-Nov-21 08:33N 26°00' W 079°57'8 7.7
2014-Nov-21 07:33N 26°05' W 080°04'4 3.8
2014-Nov-21 06:33N 26°04' W 080°08'0 0.0
2014-Nov-21 05:33N 26°04' W 080°08'0 0.0
2014-Nov-21 04:33N 26°04' W 080°08'0 0.0
2014-Nov-21 03:33N 26°04' W 080°08'0 0.0
2014-Nov-21 02:33N 26°04' W 080°08'0 0.0
2014-Nov-21 01:33N 26°04' W 080°08'0 0.0
2014-Nov-21 00:33N 26°04' W 080°08'0 0.0
2014-Nov-20 23:33N 26°04' W 080°08'1 1.1
2014-Nov-20 22:33N 26°04' W 080°07'8 8.0
2014-Nov-20 21:33N 26°05' W 079°58'1010.0
2014-Nov-20 20:33N 26°04' W 079°47'1010.2
2014-Nov-20 19:33N 26°04' W 079°36'  
2014-Nov-17 18:05N 25°56' W 079°33'5 9.2
2014-Nov-17 17:33N 25°58' W 079°38'9 9.4
2014-Nov-17 16:33N 26°01' W 079°48'9 8.9
2014-Nov-17 15:33N 26°03' W 079°58'8 8.5
2014-Nov-17 14:33N 26°05' W 080°07'2 1.6
2014-Nov-17 13:33N 26°04' W 080°08'0 0.0
2014-Nov-17 12:33N 26°04' W 080°08'0 0.0
2014-Nov-17 11:33N 26°04' W 080°08'0 0.0
2014-Nov-17 10:33N 26°04' W 080°08'0 0.0
2014-Nov-17 09:33N 26°04' W 080°08'0 0.0
2014-Nov-17 08:33N 26°04' W 080°08'0 0.0
2014-Nov-17 07:33N 26°04' W 080°08'0 0.0
2014-Nov-17 06:33N 26°04' W 080°08'0 0.0
2014-Nov-17 05:33N 26°04' W 080°08'0 0.0
2014-Nov-17 04:33N 26°04' W 080°08'0 0.0
2014-Nov-17 03:33N 26°04' W 080°08'0 0.0
2014-Nov-17 02:33N 26°04' W 080°08'0 0.2
2014-Nov-17 01:33N 26°04' W 080°08'6 6.4
2014-Nov-17 00:33N 26°04' W 080°01'1110.9
2014-Nov-16 23:33N 26°01' W 079°49'1110.6
2014-Nov-16 22:33N 25°58' W 079°38'  

Dump ship's entire track history